Latest Weather Observations for Cooma Airport

IDN60901

Issued at 5:21 pm EDT Thursday 5 March 2015 (issued every 10 minutes, with the page automatically refreshed every 10 minutes)

About weather observations | Map of Canberra area stations | Latest observations for Canberra area | Other Formats
Station Details ID: 070217 Name: COOMA AIRPORT AWS Lat: -36.29 Lon: 148.97 Height: 930.0 m
Data from the previous 72 hours. | See also: Recent months for locations in Aust Capital Territory
Date/Time
EDT
Tmp

°C
App
Tmp
°C
Dew
Point
°C
Rel
Hum
%
Delta-T

°C
Wind Press
QNH
hPa
Press
MSL
hPa
Rain
since
9 am
mm
Dir
 
Spd
km/h
Gust
km/h
Spd
kts
Gust
kts
05/05:00pm 15.8 8.3 -1.7 30 7.6 SW 28 41 15 22 1011.5 1008.5 -
05/04:30pm 15.8 8.4 -0.4 33 7.2 SW 28 39 15 21 1011.7 1008.8 -
05/04:00pm 15.4 7.2 -1.2 32 7.3 SSW 32 43 17 23 1011.7 1008.8 -
05/03:30pm 15.8 8.9 0.0 34 7.1 SSW 26 39 14 21 1011.8 1008.9 -
05/03:10pm 15.5 7.8 -0.3 34 7.0 SSW 30 48 16 26 1012.3 1009.3 -
05/03:00pm 15.0 6.7 -1.5 32 7.1 SSW 32 46 17 25 1012.3 1009.3 -
05/02:43pm 15.1 7.3 -1.0 33 7.0 SSW 30 48 16 26 1012.4 1009.4 -
05/02:30pm 15.1 6.4 -0.6 34 6.9 SSW 35 48 19 26 1012.4 1009.4 -
05/02:00pm 14.7 5.2 -1.0 34 6.8 SSW 39 54 21 29 1012.5 1009.6 -
05/01:30pm 14.9 5.8 -0.8 34 6.9 SW 37 52 20 28 1012.3 1009.3 -
05/01:00pm 14.8 5.2 -1.3 33 7.0 SW 39 57 21 31 1012.3 1009.3 -
05/12:38pm 15.3 5.3 -1.7 31 7.3 SSW 41 61 22 33 1012.2 1009.2 -
05/12:30pm 14.3 4.4 -0.6 36 6.5 SSW 41 54 22 29 1012.1 1009.1 -
05/12:00pm 13.8 4.0 -0.3 38 6.2 SSW 41 56 22 30 1011.8 1008.9 -
05/11:30am 13.6 3.5 0.6 41 5.8 SSW 43 57 23 31 1011.4 1008.4 0.0
05/11:07am 13.2 2.9 0.6 42 5.6 SSW 44 67 24 36 1011.1 1008.1 0.0
05/11:00am 13.1 2.9 0.8 43 5.5 SSW 44 59 24 32 1011.2 1008.2 0.0
05/10:31am 12.4 3.7 3.9 56 4.0 SSW 39 50 21 27 1010.7 1007.8 0.0
05/10:30am 12.4 3.7 3.9 56 4.0 SSW 39 50 21 27 1010.7 1007.8 0.0
05/10:00am 9.8 2.1 5.4 74 2.1 S 35 54 19 29 1010.5 1007.5 0.0
05/09:41am 10.0 1.1 5.2 72 2.3 S 41 54 22 29 1010.2 1007.2 0.0
05/09:30am 10.5 1.2 5.9 73 2.2 S 44 61 24 33 1010.0 1007.0 0.0
05/09:12am 11.8 4.4 5.2 64 3.2 SW 33 50 18 27 1009.3 1006.3 0.0
05/08:30am 14.7 9.8 5.2 53 4.7 SW 20 26 11 14 1009.0 1006.0 0.0
05/08:00am 13.5 7.4 4.6 55 4.3 SW 26 33 14 18 1008.6 1005.5 0.0
05/07:30am 11.7 6.8 4.2 60 3.6 WSW 19 28 10 15 1007.9 1004.9 0.0
05/07:00am 11.6 6.5 3.9 59 3.6 WSW 20 32 11 17 1007.6 1004.5 0.0
05/06:30am 12.0 6.8 2.7 53 4.3 W 19 28 10 15 1007.0 1004.0 0.0
05/05:30am 12.4 8.2 3.6 55 4.1 W 15 20 8 11 1006.6 1003.5 0.0
05/05:00am 12.6 9.8 3.3 53 4.4 NW 7 9 4 5 1006.7 1003.6 0.0
05/04:30am 13.7 10.4 2.6 47 5.2 NW 9 17 5 9 1007.2 1004.2 0.0
05/04:00am 14.3 9.7 1.6 42 5.8 WNW 15 30 8 16 1007.4 1004.3 0.0
05/03:30am 15.1 6.9 0.5 37 6.6 WNW 33 50 18 27 1007.0 1004.0 0.0
05/03:25am 15.4 7.7 0.0 35 6.9 WNW 30 50 16 27 1007.1 1004.1 0.0
05/03:00am 15.4 8.9 0.0 35 6.9 W 24 41 13 22 1007.5 1004.4 0.0
05/02:30am 15.1 11.0 -0.2 35 6.8 NW 11 24 6 13 1008.1 1005.1 0.0
05/02:00am 15.0 11.0 0.4 37 6.6 W 11 19 6 10 1008.4 1005.4 0.0
05/01:30am 15.9 11.9 0.5 35 7.0 NW 11 20 6 11 1009.1 1006.1 0.0
05/01:00am 16.0 11.6 0.6 35 7.0 NW 13 24 7 13 1009.4 1006.4 0.0
05/12:30am 13.9 10.3 0.5 40 6.0 NE 9 13 5 7 1010.0 1007.0 0.0
 
Date/Time
EDT
Tmp

°C
App
Tmp
°C
Dew
Point
°C
Rel
Hum
%
Delta-T

°C
Wind Press
QNH
hPa
Press
MSL
hPa
Rain
since
9 am
mm
Dir
 
Spd
km/h
Gust
km/h
Spd
kts
Gust
kts
04/11:30pm 15.7 11.3 -2.3 29 7.7 N 11 19 6 10 1011.1 1008.1 0.0
04/11:00pm 15.9 12.2 -2.6 28 7.9 NNW 7 17 4 9 1011.5 1008.5 0.0
04/10:30pm 17.5 12.2 -3.8 23 9.0 NW 15 24 8 13 1012.0 1009.0 0.0
04/10:00pm 16.9 12.7 -1.2 29 8.0 NW 11 19 6 10 1012.1 1009.1 0.0
04/09:30pm 14.4 10.3 -0.5 36 6.5 NW 11 15 6 8 1012.4 1009.4 0.0
04/08:30pm 18.3 12.3 -3.2 23 9.2 NW 19 28 10 15 1012.0 1009.0 0.0
04/08:00pm 18.7 13.1 -2.8 23 9.4 NW 17 20 9 11 1011.7 1008.8 0.0
04/07:30pm 19.5 14.2 -4.0 20 10.0 NW 15 20 8 11 1011.6 1008.7 0.0
04/07:00pm 21.1 15.8 -3.4 19 10.8 WNW 15 22 8 12 1011.6 1008.7 0.0
04/06:30pm 22.6 17.7 -0.8 21 10.9 WNW 15 24 8 13 1012.0 1009.0 0.0
04/05:30pm 24.5 18.7 -1.3 18 12.1 WNW 19 28 10 15 1011.6 1008.7 0.0
04/05:00pm 25.4 19.7 -0.6 18 12.5 W 19 28 10 15 1011.5 1008.5 0.0
04/04:30pm 26.1 19.9 -3.5 14 13.5 W 20 28 11 15 1011.6 1008.7 0.0
04/04:00pm 26.5 20.7 -1.3 16 13.3 WNW 19 26 10 14 1011.7 1008.8 0.0
04/03:30pm 26.4 21.5 -0.6 17 13.0 WNW 15 26 8 14 1012.0 1009.0 0.0
04/03:00pm 26.0 21.8 3.9 24 11.5 SW 15 24 8 13 1012.3 1009.3 0.0
04/02:30pm 25.9 22.8 3.8 24 11.5 SW 9 19 5 10 1012.5 1009.6 0.0
04/02:00pm 24.7 21.5 5.0 28 10.4 ENE 11 17 6 9 1013.2 1010.2 0.0
04/01:30pm 23.7 21.6 8.2 37 8.6 ENE 9 20 5 11 1013.5 1010.6 0.0
04/01:00pm 22.8 20.9 9.2 42 7.6 NE 9 15 5 8 1014.1 1011.2 0.0
04/12:30pm 21.3 20.3 11.1 52 5.9 NNE 7 11 4 6 1014.5 1011.6 0.0
04/12:00pm 17.8 17.6 13.1 74 2.8 SSE 6 9 3 5 1015.5 1012.6 0.0
04/11:33am 15.5 14.7 13.0 85 1.5 SW 9 13 5 7 1016.0 1013.1 0.0
04/11:30am 15.1 14.4 13.3 89 1.0 SW 9 13 5 7 1016.1 1013.2 0.0
04/11:00am 12.8 11.1 12.6 99 0.1 SSW 13 15 7 8 1016.5 1013.7 0.0
04/10:58am 12.8 11.5 12.6 99 0.1 SW 11 15 6 8 1016.5 1013.7 0.0
04/10:30am 11.8 10.7 11.8 100 0.0 S 9 11 5 6 1016.7 1013.8 0.0
04/10:00am 11.6 10.8 11.6 100 0.0 SW 7 11 4 6 1016.8 1013.9 0.0
04/09:30am 10.7 9.2 10.7 100 0.0 S 9 13 5 7 1016.8 1013.9 0.0
04/09:00am 10.6 9.1 10.6 100 0.0 SSW 9 13 5 7 1016.8 1013.9 0.0
04/08:30am 10.4 9.4 10.4 100 0.0 SW 6 9 3 5 1016.5 1013.7 0.0
04/08:00am 9.8 8.7 9.8 100 0.0 W 6 9 3 5 1016.2 1013.3 0.0
04/07:30am 9.5 8.3 9.5 100 0.0 SW 6 9 3 5 1016.0 1013.1 0.0
04/07:00am 8.7 7.1 8.7 100 0.0 S 7 7 4 4 1015.6 1012.7 0.0
04/06:30am 7.7 7.2 7.7 100 0.0 CALM 0 0 0 0 1015.2 1012.3 0.0
04/06:00am 7.2 5.2 7.1 99 0.0 N 7 9 4 5 1015.0 1012.1 0.0
04/05:30am 7.5 5.2 7.4 99 0.0 NNE 9 13 5 7 1014.8 1011.9 0.0
04/05:00am 7.8 5.6 7.7 99 0.0 NE 9 15 5 8 1015.1 1012.2 0.0
04/04:30am 7.3 4.6 7.2 99 0.0 NNE 11 15 6 8 1015.3 1012.5 0.0
04/04:10am 6.7 4.2 6.6 99 0.0 NE 9 13 5 7 1015.3 1012.5 0.0
04/04:00am 6.6 3.7 6.5 99 0.0 NNE 11 13 6 7 1015.5 1012.6 0.0
04/03:48am 8.2 5.3 8.1 99 0.1 N 13 13 7 7 1015.5 1012.6 0.0
04/03:30am 6.6 4.1 6.5 99 0.0 NNE 9 11 5 6 1015.7 1012.8 0.0
04/03:00am 7.7 6.0 7.6 99 0.0 N 6 9 3 5 1015.9 1013.0 0.0
04/02:30am 7.1 6.3 6.5 96 0.3 CALM 0 7 0 4 1016.3 1013.5 0.0
04/02:00am 8.2 7.5 6.8 91 0.7 CALM 0 0 0 0 1016.8 1013.9 0.0
04/01:30am 9.9 8.5 9.6 98 0.2 N 7 9 4 5 1017.1 1014.2 0.0
04/01:00am 10.4 9.4 10.2 99 0.1 N 6 7 3 4 1017.3 1014.5 0.0
04/12:30am 9.4 7.6 9.3 99 0.1 N 9 11 5 6 1017.3 1014.5 0.0
04/12:00am 9.3 7.4 9.2 99 0.1 NNE 9 11 5 6 1017.5 1014.7 0.0
 
Date/Time
EDT
Tmp

°C
App
Tmp
°C
Dew
Point
°C
Rel
Hum
%
Delta-T

°C
Wind Press
QNH
hPa
Press
MSL
hPa
Rain
since
9 am
mm
Dir
 
Spd
km/h
Gust
km/h
Spd
kts
Gust
kts
03/11:30pm 10.1 8.4 9.9 99 0.1 NNE 9 11 5 6 1017.8 1014.9 0.0
03/11:00pm 10.7 8.3 10.2 97 0.3 NNE 13 13 7 7 1017.9 1015.0 0.0
03/10:30pm 11.4 9.1 10.6 95 0.4 NNE 13 17 7 9 1018.0 1015.1 0.0
03/10:00pm 11.5 9.9 10.1 91 0.8 NNE 9 11 5 6 1018.0 1015.1 0.0
03/09:30pm 12.3 10.7 10.2 87 1.1 NNE 9 13 5 7 1017.8 1014.9 0.0
03/09:00pm 13.3 12.2 10.8 85 1.4 NNE 7 9 4 5 1017.5 1014.7 0.0
03/08:30pm 14.0 11.2 11.2 83 1.6 NNE 17 22 9 12 1017.0 1014.1 0.0
03/08:00pm 15.1 12.0 12.1 82 1.7 NNE 20 28 11 15 1016.5 1013.7 0.0
03/07:30pm 17.0 14.2 12.5 75 2.6 NE 19 24 10 13 1016.1 1013.2 0.0
03/07:00pm 19.0 16.1 13.0 68 3.5 ENE 20 30 11 16 1015.6 1012.7 0.0
03/06:30pm 20.4 17.9 13.6 65 4.1 ENE 19 26 10 14 1015.5 1012.6 0.0
03/06:00pm 21.4 18.6 13.3 60 4.8 E 20 32 11 17 1015.3 1012.5 0.0
03/05:30pm 23.3 22.2 12.0 49 6.7 NE 9 17 5 9 1015.1 1012.2 0.0
03/05:00pm 24.1 23.4 12.1 47 7.1 NE 7 13 4 7 1015.0 1012.1 0.0
03/04:30pm 24.2 24.0 13.7 52 6.4 NNE 7 13 4 7 1015.1 1012.2 0.0
03/04:00pm 24.1 22.8 13.6 52 6.4 NNE 13 17 7 9 1015.3 1012.5 0.0
03/03:30pm 22.9 21.5 13.4 55 5.7 NNE 13 19 7 10 1015.8 1012.9 0.0
03/03:00pm 23.0 22.0 12.3 51 6.3 ESE 9 13 5 7 1016.1 1013.2 0.0
03/02:30pm 22.9 22.7 13.7 56 5.6 SE 7 11 4 6 1016.7 1013.8 0.0
03/02:00pm 22.0 21.7 12.8 56 5.5 ENE 6 9 3 5 1016.9 1014.0 0.0
03/01:30pm 21.4 21.8 13.8 62 4.6 NNE 4 7 2 4 1017.1 1014.2 0.0
03/01:00pm 20.0 20.2 13.2 65 4.0 ESE 4 7 2 4 1017.4 1014.6 0.0
03/12:30pm 18.7 18.9 12.9 69 3.4 SSE 4 7 2 4 1017.8 1014.9 0.0
03/12:00pm 18.5 19.6 13.4 72 3.0 CALM 0 0 0 0 1018.1 1015.2 0.0
03/11:30am 16.8 16.7 13.3 80 2.1 N 6 11 3 6 1018.4 1015.6 0.0
03/11:00am 15.5 16.0 12.8 84 1.6 SE 2 6 1 3 1018.5 1015.7 0.0
03/10:41am 15.3 15.1 13.5 89 1.1 SW 7 13 4 7 1019.0 1016.1 0.0
03/10:30am 14.8 14.0 12.8 88 1.2 WSW 9 13 5 7 1019.2 1016.4 0.0
03/10:00am 14.3 14.0 13.2 93 0.6 WSW 7 11 4 6 1019.1 1016.2 0.0
03/09:38am 13.8 13.5 13.2 96 0.3 SSW 7 11 4 6 1018.7 1015.9 0.0
03/09:30am 13.7 13.0 13.2 97 0.3 SW 9 11 5 6 1018.6 1015.8 0.0
03/09:00am 13.5 12.4 13.2 98 0.2 SW 11 13 6 7 1018.3 1015.5 0.0
03/08:30am 13.2 14.1 13.0 99 0.1 CALM 0 0 0 0 1018.4 1015.6 0.0
03/08:28am 13.2 14.1 13.0 99 0.1 CALM 0 0 0 0 1018.5 1015.7 0.0
03/08:15am 13.2 14.1 13.0 99 0.1 CALM 0 0 0 0 1018.2 1015.3 0.0
03/08:00am 13.0 13.9 12.8 99 0.1 CALM 0 0 0 0 1018.0 1015.1 0.0
03/07:30am 12.6 13.4 12.4 99 0.1 CALM 0 2 0 1 1017.4 1014.6 0.0
03/07:00am 12.5 11.5 12.3 99 0.1 NE 9 11 5 6 1016.9 1014.0 0.0
03/06:30am 12.5 11.5 12.3 99 0.1 NNE 9 13 5 7 1016.3 1013.5 0.0
03/06:00am 12.4 10.6 12.2 99 0.1 NE 13 15 7 8 1016.1 1013.2 0.0
03/05:30am 12.4 11.0 12.2 99 0.1 NE 11 15 6 8 1016.0 1013.1 0.0
03/05:00am 12.5 10.4 12.3 99 0.1 NNE 15 17 8 9 1015.9 1013.0 0.0
03/04:30am 12.4 10.6 12.2 99 0.1 NE 13 13 7 7 1016.1 1013.2 0.0
03/04:00am 12.4 10.2 12.2 99 0.1 NNE 15 17 8 9 1016.1 1013.2 0.0
03/03:30am 12.5 10.8 12.3 99 0.1 NE 13 15 7 8 1016.2 1013.3 0.0
03/03:00am 12.6 10.9 12.4 99 0.1 NE 13 15 7 8 1016.4 1013.6 0.0
03/02:30am 12.5 10.8 12.3 99 0.1 NNE 13 17 7 9 1016.5 1013.7 0.0
03/02:00am 12.6 10.5 12.4 99 0.1 NNE 15 17 8 9 1017.1 1014.2 0.0
03/01:30am 12.7 11.0 12.4 98 0.2 NE 13 15 7 8 1017.5 1014.7 0.0
03/01:00am 12.5 10.8 12.3 99 0.1 NNE 13 15 7 8 1017.9 1015.0 0.0
03/12:30am 12.6 10.9 12.3 98 0.2 NNE 13 15 7 8 1018.2 1015.3 0.0
03/12:00am 12.6 10.9 12.4 99 0.1 NNE 13 15 7 8 1018.2 1015.3 0.0
 
Date/Time
EDT
Tmp

°C
App
Tmp
°C
Dew
Point
°C
Rel
Hum
%
Delta-T

°C
Wind Press
QNH
hPa
Press
MSL
hPa
Rain
since
9 am
mm
Dir
 
Spd
km/h
Gust
km/h
Spd
kts
Gust
kts
02/11:30pm 12.5 10.7 12.0 97 0.3 NNE 13 17 7 9 1018.6 1015.8 0.0
02/11:00pm 12.9 10.8 12.3 96 0.3 NE 15 19 8 10 1018.4 1015.6 0.0
02/10:30pm 13.0 11.3 12.4 96 0.3 NE 13 17 7 9 1019.0 1016.1 0.0
02/10:00pm 13.1 10.6 12.3 95 0.5 NE 17 20 9 11 1018.4 1015.6 0.0
02/09:30pm 13.1 10.2 12.3 95 0.5 NE 19 20 10 11 1018.3 1015.5 0.0
02/09:00pm 13.3 10.2 12.2 93 0.6 NE 20 24 11 13 1017.9 1015.0 0.0
02/08:30pm 13.5 10.5 12.1 91 0.8 NE 19 24 10 13 1017.5 1014.7 0.0
02/08:00pm 14.3 12.1 12.0 86 1.3 ENE 15 24 8 13 1017.2 1014.3 0.0
02/07:30pm 15.4 12.2 11.8 79 2.0 ENE 20 33 11 18 1016.7 1013.8 0.0
02/07:00pm 17.0 12.3 11.9 72 2.9 ENE 28 33 15 18 1016.3 1013.5 0.0
02/06:30pm 17.7 12.9 11.5 67 3.5 ENE 28 33 15 18 1016.3 1013.5 0.0
02/06:00pm 19.1 14.4 12.1 64 4.1 ENE 28 35 15 19 1015.9 1013.0 0.0
02/05:30pm 20.4 16.9 12.1 59 4.8 NE 22 32 12 17 1016.4 1013.6 0.0

Latest Capital City Observations: Canberra | Sydney | Melbourne | Brisbane | Adelaide | Perth | Hobart | Darwin

Other Formats:

Comma delimited format used in spreadsheet applications
http://www.bom.gov.au/fwo/IDN60903/IDN60903.94921.axf

JavaScript Object Notation format (JSON) in row-major order
http://www.bom.gov.au/fwo/IDN60903/IDN60903.94921.json